createdAt,value
2022-12-25T00:03:29.005Z,11.20
2022-12-25T00:08:30.589Z,10.90
2022-12-25T00:13:33.210Z,12.90
2022-12-25T00:18:34.961Z,14.40
2022-12-25T00:23:36.268Z,15.20
2022-12-25T00:28:38.849Z,12.90
2022-12-25T00:33:42.432Z,12.60
2022-12-25T00:38:46.137Z,12.10
2022-12-25T00:43:47.451Z,17.00
2022-12-25T00:48:48.824Z,14.80
2022-12-25T00:53:50.138Z,16.30
2022-12-25T00:58:51.445Z,17.80
2022-12-25T01:03:52.828Z,14.60
2022-12-25T01:09:12.785Z,13.80
2022-12-25T01:14:14.407Z,14.50
2022-12-25T01:19:15.901Z,16.30
2022-12-25T01:24:17.914Z,15.80
2022-12-25T01:29:19.178Z,17.30
2022-12-25T01:34:20.850Z,16.20
2022-12-25T01:39:22.561Z,18.90
2022-12-25T01:44:47.761Z,18.30
2022-12-25T01:49:50.305Z,13.40
2022-12-25T01:54:57.147Z,19.10
2022-12-25T02:00:00.312Z,17.00
2022-12-25T02:05:08.296Z,16.00
2022-12-25T02:10:11.213Z,17.20
2022-12-25T02:15:20.269Z,15.50
2022-12-25T02:20:43.565Z,15.80
2022-12-25T02:26:22.130Z,14.70
2022-12-25T02:31:52.464Z,16.50
2022-12-25T02:37:15.952Z,15.90
2022-12-25T02:42:59.978Z,18.70
2022-12-25T02:48:21.915Z,30.90
2022-12-25T02:53:41.931Z,22.40
2022-12-25T02:59:04.360Z,15.70
2022-12-25T03:04:29.455Z,13.30
2022-12-25T03:09:57.858Z,14.70
2022-12-25T03:15:19.487Z,12.30
2022-12-25T03:20:39.671Z,13.20
2022-12-25T03:26:00.182Z,11.70
2022-12-25T03:31:15.127Z,15.30
2022-12-25T03:36:28.441Z,15.80
2022-12-25T03:42:01.194Z,13.40
2022-12-25T03:47:35.666Z,13.30
2022-12-25T03:52:57.590Z,12.40
2022-12-25T03:58:17.431Z,10.70
2022-12-25T04:03:37.460Z,12.90
2022-12-25T04:08:57.720Z,11.50
2022-12-25T04:14:17.986Z,11.20
2022-12-25T04:19:37.800Z,9.70
2022-12-25T04:24:57.845Z,10.80
2022-12-25T04:30:17.898Z,12.80
2022-12-25T04:35:38.152Z,15.50
2022-12-25T04:40:39.789Z,11.10
2022-12-25T04:45:41.043Z,13.10
2022-12-25T04:50:42.417Z,11.30
2022-12-25T04:55:43.713Z,12.70
2022-12-25T05:00:44.953Z,12.60
2022-12-25T05:05:47.829Z,10.10
2022-12-25T05:10:49.889Z,14.00
2022-12-25T05:15:51.742Z,13.20
2022-12-25T05:20:54.252Z,14.30
2022-12-25T05:25:55.939Z,16.40
2022-12-25T05:30:57.365Z,28.10
2022-12-25T05:36:02.963Z,25.70
2022-12-25T05:41:04.861Z,18.60
2022-12-25T05:46:08.281Z,18.70
2022-12-25T05:51:12.119Z,15.00
2022-12-25T05:56:13.433Z,15.80
2022-12-25T06:01:20.905Z,42.20
2022-12-25T06:06:22.284Z,57.60
2022-12-25T06:11:23.788Z,65.50
2022-12-25T06:16:25.112Z,38.00
2022-12-25T06:21:26.435Z,40.20
2022-12-25T06:26:27.787Z,37.70
2022-12-25T06:31:29.112Z,28.00
2022-12-25T06:36:30.924Z,25.20
2022-12-25T06:41:32.310Z,20.00
2022-12-25T06:46:33.791Z,16.90
2022-12-25T06:51:35.232Z,19.50
2022-12-25T06:56:37.097Z,18.20
2022-12-25T07:01:45.965Z,17.80
2022-12-25T07:06:47.809Z,24.10
2022-12-25T07:11:49.075Z,19.60
2022-12-25T07:16:50.583Z,25.00
2022-12-25T07:21:53.068Z,23.80
2022-12-25T07:26:54.283Z,21.10
2022-12-25T07:31:55.968Z,18.70
2022-12-25T07:36:57.375Z,20.00
2022-12-25T07:41:59.579Z,18.30
2022-12-25T07:47:02.188Z,20.90
2022-12-25T07:52:03.987Z,21.30
2022-12-25T07:57:05.300Z,21.70
2022-12-25T08:02:07.056Z,19.90
2022-12-25T08:07:08.506Z,18.30
2022-12-25T08:12:09.708Z,18.00
2022-12-25T08:17:11.123Z,18.40
2022-12-25T08:22:12.668Z,17.60
2022-12-25T08:27:13.977Z,18.20
2022-12-25T08:32:15.591Z,19.20
2022-12-25T08:37:17.019Z,21.30
2022-12-25T08:42:18.531Z,23.70
2022-12-25T08:47:19.824Z,22.70
2022-12-25T08:52:21.099Z,23.80
2022-12-25T08:57:22.378Z,24.30
2022-12-25T09:02:23.780Z,26.60
2022-12-25T09:07:25.561Z,27.30
2022-12-25T09:12:26.841Z,24.80
2022-12-25T09:17:28.165Z,22.20
2022-12-25T09:22:29.452Z,23.40
2022-12-25T09:27:31.156Z,21.60
2022-12-25T09:32:32.463Z,30.80
2022-12-25T09:37:34.821Z,24.80
2022-12-25T09:42:36.265Z,24.60
2022-12-25T09:47:40.701Z,22.10
2022-12-25T09:53:03.916Z,22.20
2022-12-25T09:58:12.336Z,15.60
2022-12-25T10:03:32.408Z,23.30
2022-12-25T10:09:12.300Z,20.40
2022-12-25T10:14:23.045Z,19.80
2022-12-25T10:19:46.467Z,34.80
2022-12-25T10:24:53.988Z,25.80
2022-12-25T10:29:55.440Z,19.80
2022-12-25T10:34:57.096Z,18.70
2022-12-25T10:39:58.501Z,15.10
2022-12-25T10:45:04.482Z,14.40
2022-12-25T10:50:27.777Z,15.00
2022-12-25T10:55:30.046Z,16.40
2022-12-25T11:00:32.479Z,11.70
2022-12-25T11:05:36.357Z,11.10
2022-12-25T11:10:43.147Z,16.50
2022-12-25T11:15:47.805Z,33.20
2022-12-25T11:21:31.933Z,9.10
2022-12-25T11:26:50.300Z,11.70
2022-12-25T11:31:54.897Z,11.90
2022-12-25T11:36:58.261Z,15.50
2022-12-25T11:42:45.562Z,18.80
2022-12-25T11:47:55.145Z,19.00
2022-12-25T11:53:00.759Z,13.60
2022-12-25T11:58:11.879Z,33.10
2022-12-25T12:08:19.738Z,15.20
2022-12-25T12:13:44.896Z,30.80
2022-12-25T12:18:50.288Z,16.60
2022-12-25T12:24:20.101Z,24.90
2022-12-25T12:29:27.101Z,23.70
2022-12-25T12:34:36.828Z,22.50
2022-12-25T12:39:40.003Z,15.30
2022-12-25T12:44:42.413Z,17.70
2022-12-25T12:49:43.771Z,18.70
2022-12-25T12:55:05.850Z,18.20
2022-12-25T13:00:16.346Z,15.80
2022-12-25T13:05:56.283Z,17.20
2022-12-25T13:11:21.717Z,14.70
2022-12-25T13:16:44.156Z,14.40
2022-12-25T13:22:30.489Z,20.90
2022-12-25T13:27:33.137Z,20.20
2022-12-25T13:32:34.913Z,16.60
2022-12-25T13:37:36.526Z,18.30
2022-12-25T13:42:41.286Z,19.10
2022-12-25T13:47:48.671Z,22.90
2022-12-25T13:52:54.557Z,20.10
2022-12-25T13:58:02.651Z,19.90
2022-12-25T14:03:06.873Z,18.10
2022-12-25T14:08:18.558Z,20.30
2022-12-25T14:13:24.285Z,19.60
2022-12-25T14:18:26.581Z,21.90
2022-12-25T14:23:38.655Z,25.30
2022-12-25T14:28:39.986Z,26.50
2022-12-25T14:33:41.881Z,27.90
2022-12-25T14:38:43.279Z,28.40
2022-12-25T14:43:52.876Z,22.70
2022-12-25T14:49:37.860Z,24.90
2022-12-25T14:54:43.420Z,22.10
2022-12-25T14:59:44.923Z,22.90
2022-12-25T15:04:46.510Z,26.10
2022-12-25T15:09:47.956Z,27.90
2022-12-25T15:14:49.301Z,26.50
2022-12-25T15:19:52.259Z,29.80
2022-12-25T15:24:58.761Z,32.20
2022-12-25T15:30:11.135Z,34.80
2022-12-25T15:35:19.025Z,26.00
2022-12-25T15:40:20.736Z,24.70
2022-12-25T15:45:45.777Z,22.50
2022-12-25T15:50:47.115Z,17.70
2022-12-25T15:55:48.485Z,17.80
2022-12-25T16:00:50.072Z,21.10
2022-12-25T16:05:51.371Z,23.40
2022-12-25T16:10:53.123Z,23.90
2022-12-25T16:15:54.562Z,20.60
2022-12-25T16:20:57.434Z,18.60
2022-12-25T16:25:58.697Z,21.10
2022-12-25T16:31:00.572Z,18.70
2022-12-25T16:36:01.933Z,25.20
2022-12-25T16:41:03.434Z,22.30
2022-12-25T16:46:23.748Z,22.80
2022-12-25T16:51:25.129Z,24.00
2022-12-25T16:56:27.675Z,27.30
2022-12-25T17:01:29.687Z,28.00
2022-12-25T17:06:31.517Z,38.80
2022-12-25T17:11:32.893Z,31.70
2022-12-25T17:16:36.715Z,23.80
2022-12-25T17:21:38.191Z,27.00
2022-12-25T17:26:40.808Z,33.10
2022-12-25T17:31:42.204Z,28.30
2022-12-25T17:36:43.678Z,22.70
2022-12-25T17:41:45.437Z,30.50
2022-12-25T17:46:47.610Z,30.00
2022-12-25T17:51:49.686Z,25.90
2022-12-25T17:56:51.051Z,29.40
2022-12-25T18:01:52.744Z,31.40
2022-12-25T18:06:56.294Z,25.90
2022-12-25T18:11:57.679Z,25.30
2022-12-25T18:16:59.123Z,31.70
2022-12-25T18:22:00.745Z,29.40
2022-12-25T18:27:02.055Z,30.70
2022-12-25T18:32:04.798Z,29.50
2022-12-25T18:37:06.119Z,29.70
2022-12-25T18:42:26.228Z,31.80
2022-12-25T18:47:27.745Z,27.00
2022-12-25T18:52:47.894Z,30.90
2022-12-25T18:57:52.275Z,32.70
2022-12-25T19:02:58.248Z,32.80
2022-12-25T19:07:59.779Z,31.60
2022-12-25T19:13:01.127Z,29.70
2022-12-25T19:18:02.864Z,32.20
2022-12-25T19:23:04.573Z,32.40
2022-12-25T19:28:06.211Z,34.00
2022-12-25T19:33:12.359Z,31.90
2022-12-25T19:38:19.719Z,33.90
2022-12-25T19:43:21.084Z,31.40
2022-12-25T19:48:23.011Z,23.30
2022-12-25T19:53:24.453Z,34.00
2022-12-25T19:58:25.717Z,24.20
2022-12-25T20:03:27.632Z,18.80
2022-12-25T20:08:29.170Z,19.80
2022-12-25T20:13:30.864Z,30.70
2022-12-25T20:18:41.800Z,32.10
2022-12-25T20:23:45.790Z,24.80
2022-12-25T20:28:47.123Z,29.40
2022-12-25T20:33:48.971Z,31.40
2022-12-25T20:38:53.430Z,32.50
2022-12-25T20:43:55.954Z,24.60
2022-12-25T20:48:57.563Z,25.30
2022-12-25T20:53:59.017Z,22.00
2022-12-25T20:59:00.658Z,24.00
2022-12-25T21:04:02.751Z,27.50
2022-12-25T21:09:04.968Z,23.30
2022-12-25T21:14:06.290Z,16.80
2022-12-25T21:19:10.245Z,24.80
2022-12-25T21:24:12.143Z,26.10
2022-12-25T21:29:13.592Z,30.40
2022-12-25T21:34:14.883Z,27.10
2022-12-25T21:39:16.599Z,17.30
2022-12-25T21:44:17.952Z,25.00
2022-12-25T21:49:38.123Z,23.10
2022-12-25T21:54:39.397Z,22.80
2022-12-25T21:59:40.769Z,23.20
2022-12-25T22:04:42.237Z,24.30
2022-12-25T22:09:48.598Z,21.40
2022-12-25T22:14:54.342Z,22.80
2022-12-25T22:19:57.294Z,12.90
2022-12-25T22:25:01.219Z,24.40
2022-12-25T22:30:09.582Z,21.30
2022-12-25T22:35:12.572Z,19.30
2022-12-25T22:40:16.655Z,21.20
2022-12-25T22:45:18.168Z,21.00
2022-12-25T22:50:19.527Z,18.80
2022-12-25T22:55:20.971Z,22.50
2022-12-25T23:00:22.282Z,23.00
2022-12-25T23:05:24.044Z,22.00
2022-12-25T23:10:25.334Z,19.00
2022-12-25T23:15:27.426Z,22.40
2022-12-25T23:20:47.621Z,19.90
2022-12-25T23:26:07.760Z,22.70
2022-12-25T23:31:09.097Z,22.50
2022-12-25T23:36:10.977Z,20.50
2022-12-25T23:41:12.263Z,16.50
2022-12-25T23:46:14.708Z,19.40
2022-12-25T23:51:16.065Z,21.10
2022-12-25T23:56:17.337Z,14.50
